createdAt,value
2022-08-25T00:00:15.115Z,23.79
2022-08-25T00:01:15.099Z,24.12
2022-08-25T00:02:15.109Z,24.65
2022-08-25T00:03:15.072Z,23.69
2022-08-25T00:04:15.059Z,23.47
2022-08-25T00:05:15.086Z,23.79
2022-08-25T00:06:15.034Z,24.17
2022-08-25T00:07:18.625Z,23.74
2022-08-25T00:08:15.003Z,24.22
2022-08-25T00:09:14.992Z,23.69
2022-08-25T00:10:14.971Z,24.22
2022-08-25T00:11:14.965Z,23.96
2022-08-25T00:12:14.943Z,23.58
2022-08-25T00:13:14.935Z,23.90
2022-08-25T00:14:14.922Z,23.90
2022-08-25T00:15:14.910Z,23.74
2022-08-25T00:16:14.969Z,23.96
2022-08-25T00:17:14.875Z,23.69
2022-08-25T00:18:19.860Z,23.74
2022-08-25T00:19:14.853Z,23.85
2022-08-25T00:20:14.841Z,24.06
2022-08-25T00:21:14.834Z,24.06
2022-08-25T00:22:14.812Z,24.12
2022-08-25T00:23:14.806Z,24.12
2022-08-25T00:24:14.784Z,24.06
2022-08-25T00:25:14.774Z,24.12
2022-08-25T00:26:14.759Z,24.12
2022-08-25T00:27:14.741Z,24.06
2022-08-25T00:28:14.727Z,24.71
2022-08-25T00:29:14.725Z,24.33
2022-08-25T00:30:15.845Z,24.44
2022-08-25T00:31:14.771Z,24.22
2022-08-25T00:32:14.674Z,24.28
2022-08-25T00:33:14.670Z,24.06
2022-08-25T00:34:14.653Z,24.12
2022-08-25T00:35:14.637Z,24.17
2022-08-25T00:36:14.623Z,24.12
2022-08-25T00:37:14.606Z,24.71
2022-08-25T00:38:14.588Z,24.22
2022-08-25T00:39:14.581Z,24.06
2022-08-25T00:40:14.644Z,24.28
2022-08-25T00:41:14.558Z,24.17
2022-08-25T00:42:15.788Z,24.71
2022-08-25T00:43:14.529Z,24.12
2022-08-25T00:44:14.515Z,24.98
2022-08-25T00:45:14.498Z,24.76
2022-08-25T00:46:14.577Z,24.01
2022-08-25T00:47:14.470Z,24.76
2022-08-25T00:48:14.461Z,24.01
2022-08-25T00:49:16.410Z,24.76
2022-08-25T00:50:15.450Z,24.60
2022-08-25T00:51:14.412Z,24.71
2022-08-25T00:52:14.407Z,24.71
2022-08-25T00:53:14.394Z,24.92
2022-08-25T00:54:14.387Z,24.71
2022-08-25T00:55:14.368Z,24.65
2022-08-25T00:56:14.352Z,24.65
2022-08-25T00:57:14.333Z,24.65
2022-08-25T00:58:14.324Z,25.08
2022-08-25T00:59:14.310Z,24.71
2022-08-25T01:00:14.302Z,24.87
2022-08-25T01:01:14.304Z,24.76
2022-08-25T01:02:14.306Z,24.87
2022-08-25T01:03:14.262Z,25.14
2022-08-25T01:04:14.245Z,24.65
2022-08-25T01:05:14.223Z,24.81
2022-08-25T01:06:14.213Z,24.49
2022-08-25T01:07:17.441Z,24.71
2022-08-25T01:08:16.386Z,24.65
2022-08-25T01:09:14.180Z,24.65
2022-08-25T01:10:14.166Z,24.81
2022-08-25T01:11:14.148Z,24.65
2022-08-25T01:12:14.141Z,24.76
2022-08-25T01:13:16.486Z,24.65
2022-08-25T01:14:14.111Z,24.76
2022-08-25T01:15:14.098Z,24.65
2022-08-25T01:16:14.155Z,24.65
2022-08-25T01:17:14.077Z,24.60
2022-08-25T01:18:14.056Z,24.81
2022-08-25T01:19:15.216Z,24.76
2022-08-25T01:20:14.033Z,24.65
2022-08-25T01:21:14.013Z,24.65
2022-08-25T01:22:14.001Z,24.71
2022-08-25T01:23:13.982Z,24.71
2022-08-25T01:24:13.979Z,25.08
2022-08-25T01:25:13.964Z,25.41
2022-08-25T01:26:13.954Z,25.46
2022-08-25T01:27:13.944Z,25.46
2022-08-25T01:28:13.921Z,25.08
2022-08-25T01:29:13.906Z,25.41
2022-08-25T01:30:13.894Z,25.08
2022-08-25T01:31:24.158Z,25.46
2022-08-25T01:32:14.892Z,25.03
2022-08-25T01:33:13.854Z,25.14
2022-08-25T01:34:13.837Z,25.08
2022-08-25T01:35:13.822Z,25.08
2022-08-25T01:36:13.817Z,25.14
2022-08-25T01:37:13.804Z,25.08
2022-08-25T01:38:13.792Z,25.03
2022-08-25T01:39:13.773Z,25.73
2022-08-25T01:40:13.859Z,25.08
2022-08-25T01:41:13.741Z,25.03
2022-08-25T01:42:13.735Z,25.14
2022-08-25T01:43:13.713Z,25.41
2022-08-25T01:44:16.045Z,25.46
2022-08-25T01:45:13.692Z,25.08
2022-08-25T01:46:13.741Z,25.57
2022-08-25T01:47:13.666Z,25.14
2022-08-25T01:48:13.658Z,25.08
2022-08-25T01:49:13.636Z,25.51
2022-08-25T01:50:13.625Z,25.14
2022-08-25T01:51:13.612Z,25.46
2022-08-25T01:52:13.603Z,25.24
2022-08-25T01:53:13.589Z,25.51
2022-08-25T01:54:13.576Z,25.19
2022-08-25T01:55:13.560Z,25.08
2022-08-25T01:56:13.550Z,25.46
2022-08-25T01:57:13.531Z,25.08
2022-08-25T01:58:13.517Z,25.46
2022-08-25T01:59:13.504Z,25.03
2022-08-25T02:00:13.491Z,25.19
2022-08-25T02:01:13.563Z,25.46
2022-08-25T02:02:13.521Z,25.14
2022-08-25T02:03:19.078Z,25.51
2022-08-25T02:04:14.461Z,25.41
2022-08-25T02:05:13.423Z,25.24
2022-08-25T02:06:13.407Z,25.14
2022-08-25T02:07:13.396Z,25.14
2022-08-25T02:08:13.382Z,25.03
2022-08-25T02:09:13.374Z,25.51
2022-08-25T02:10:13.362Z,25.03
2022-08-25T02:11:13.344Z,25.57
2022-08-25T02:12:13.336Z,25.46
2022-08-25T02:13:15.659Z,25.41
2022-08-25T02:14:13.308Z,25.19
2022-08-25T02:15:13.292Z,25.46
2022-08-25T02:16:13.333Z,25.51
2022-08-25T02:17:13.264Z,25.51
2022-08-25T02:18:13.246Z,25.57
2022-08-25T02:19:13.236Z,25.78
2022-08-25T02:20:13.221Z,25.19
2022-08-25T02:21:13.213Z,25.46
2022-08-25T02:22:13.197Z,25.19
2022-08-25T02:23:13.185Z,25.08
2022-08-25T02:24:13.170Z,25.46
2022-08-25T02:25:13.158Z,25.46
2022-08-25T02:26:13.143Z,25.03
2022-08-25T02:27:13.128Z,25.03
2022-08-25T02:28:13.110Z,25.57
2022-08-25T02:29:13.103Z,25.46
2022-08-25T02:30:13.088Z,25.03
2022-08-25T02:31:13.143Z,25.41
2022-08-25T02:32:13.067Z,25.51
2022-08-25T02:33:13.055Z,25.19
2022-08-25T02:34:13.036Z,25.30
2022-08-25T02:35:13.028Z,25.62
2022-08-25T02:36:13.009Z,25.14
2022-08-25T02:37:13.000Z,25.08
2022-08-25T02:38:12.985Z,24.81
2022-08-25T02:39:12.973Z,25.57
2022-08-25T02:40:13.031Z,25.57
2022-08-25T02:41:12.941Z,25.73
2022-08-25T02:42:12.922Z,25.46
2022-08-25T02:43:12.918Z,25.03
2022-08-25T02:44:12.901Z,25.03
2022-08-25T02:45:12.887Z,25.14
2022-08-25T02:46:12.919Z,25.46
2022-08-25T02:47:12.861Z,25.57
2022-08-25T02:48:12.851Z,25.46
2022-08-25T02:49:12.841Z,25.51
2022-08-25T02:50:12.820Z,25.57
2022-08-25T02:51:12.816Z,25.08
2022-08-25T02:52:12.792Z,25.46
2022-08-25T02:53:12.778Z,25.14
2022-08-25T02:54:12.762Z,25.51
2022-08-25T02:55:12.752Z,25.46
2022-08-25T02:56:12.737Z,25.57
2022-08-25T02:57:12.733Z,25.35
2022-08-25T02:58:12.708Z,25.03
2022-08-25T02:59:12.700Z,25.41
2022-08-25T03:00:13.213Z,25.57
2022-08-25T03:01:12.704Z,25.46
2022-08-25T03:02:12.661Z,25.41
2022-08-25T03:03:12.653Z,24.87
2022-08-25T03:04:12.632Z,25.14
2022-08-25T03:05:12.660Z,25.51
2022-08-25T03:06:12.614Z,25.57
2022-08-25T03:07:12.604Z,25.83
2022-08-25T03:08:12.579Z,25.14
2022-08-25T03:09:12.573Z,25.08
2022-08-25T03:10:12.556Z,25.08
2022-08-25T03:11:12.542Z,25.08
2022-08-25T03:12:12.524Z,25.46
2022-08-25T03:13:12.516Z,25.08
2022-08-25T03:14:12.496Z,25.03
2022-08-25T03:15:12.854Z,25.08
2022-08-25T03:16:12.574Z,25.46
2022-08-25T03:17:12.458Z,25.62
2022-08-25T03:18:12.438Z,25.19
2022-08-25T03:19:12.432Z,25.46
2022-08-25T03:20:12.412Z,25.62
2022-08-25T03:21:12.401Z,25.41
2022-08-25T03:22:12.385Z,25.51
2022-08-25T03:23:12.377Z,25.30
2022-08-25T03:24:12.367Z,25.46
2022-08-25T03:25:12.354Z,25.94
2022-08-25T03:26:12.334Z,25.35
2022-08-25T03:27:12.332Z,25.46
2022-08-25T03:28:12.307Z,24.76
2022-08-25T03:29:12.293Z,25.46
2022-08-25T03:30:12.276Z,25.46
2022-08-25T03:31:12.264Z,25.46
2022-08-25T03:32:12.346Z,25.30
2022-08-25T03:33:12.239Z,25.51
2022-08-25T03:34:12.221Z,25.41
2022-08-25T03:35:12.214Z,25.41
2022-08-25T03:36:12.206Z,25.30
2022-08-25T03:37:12.191Z,25.41
2022-08-25T03:38:12.175Z,25.35
2022-08-25T03:39:12.160Z,25.73
2022-08-25T03:40:15.373Z,25.73
2022-08-25T03:41:12.139Z,25.51
2022-08-25T03:42:12.121Z,25.08
2022-08-25T03:43:12.108Z,25.51
2022-08-25T03:44:12.086Z,25.46
2022-08-25T03:45:12.076Z,25.57
2022-08-25T03:46:12.093Z,25.41
2022-08-25T03:47:12.050Z,25.46
2022-08-25T03:48:12.037Z,25.35
2022-08-25T03:49:12.019Z,25.51
2022-08-25T03:50:12.014Z,25.51
2022-08-25T03:51:11.996Z,25.46
2022-08-25T03:52:11.982Z,25.30
2022-08-25T03:53:11.972Z,25.46
2022-08-25T03:54:11.955Z,25.46
2022-08-25T03:55:11.947Z,25.35
2022-08-25T03:56:11.928Z,25.41
2022-08-25T03:57:11.917Z,25.62
2022-08-25T03:58:11.901Z,25.46
2022-08-25T03:59:11.886Z,25.51
2022-08-25T04:00:11.875Z,25.46
2022-08-25T04:01:12.118Z,25.57
2022-08-25T04:02:11.868Z,25.24
2022-08-25T04:03:11.840Z,25.46
2022-08-25T04:04:11.826Z,25.35
2022-08-25T04:05:11.812Z,25.51
2022-08-25T04:06:11.797Z,25.46
2022-08-25T04:07:11.780Z,25.51
2022-08-25T04:08:11.766Z,25.46
2022-08-25T04:09:11.757Z,25.41
2022-08-25T04:10:11.744Z,25.51
2022-08-25T04:11:11.725Z,25.62
2022-08-25T04:12:11.712Z,25.57
2022-08-25T04:13:11.697Z,26.26
2022-08-25T04:14:12.986Z,25.51
2022-08-25T04:15:11.672Z,25.46
2022-08-25T04:16:11.738Z,25.46
2022-08-25T04:17:11.654Z,25.62
2022-08-25T04:18:11.625Z,25.46
2022-08-25T04:19:11.619Z,26.00
2022-08-25T04:20:14.102Z,25.62
2022-08-25T04:21:11.598Z,25.46
2022-08-25T04:22:11.575Z,25.41
2022-08-25T04:23:11.561Z,25.14
2022-08-25T04:24:11.551Z,25.67
2022-08-25T04:25:11.539Z,25.46
2022-08-25T04:26:11.522Z,26.10
2022-08-25T04:27:11.513Z,25.46
2022-08-25T04:28:11.507Z,25.51
2022-08-25T04:29:11.484Z,25.51
2022-08-25T04:30:11.478Z,25.35
2022-08-25T04:31:11.457Z,25.41
2022-08-25T04:32:11.540Z,25.41
2022-08-25T04:33:11.431Z,25.46
2022-08-25T04:34:14.300Z,25.51
2022-08-25T04:35:12.427Z,25.51
2022-08-25T04:36:12.440Z,25.46
2022-08-25T04:37:11.379Z,25.46
2022-08-25T04:38:11.359Z,25.67
2022-08-25T04:39:11.348Z,25.67
2022-08-25T04:40:11.389Z,25.46
2022-08-25T04:41:11.323Z,25.41
2022-08-25T04:42:11.306Z,25.41
2022-08-25T04:43:11.291Z,25.46
2022-08-25T04:44:11.274Z,25.57
2022-08-25T04:45:11.269Z,25.30
2022-08-25T04:46:11.372Z,25.51
2022-08-25T04:47:11.234Z,25.35
2022-08-25T04:48:11.222Z,25.51
2022-08-25T04:49:11.217Z,25.51
2022-08-25T04:50:11.199Z,25.67
2022-08-25T04:51:11.190Z,26.05
2022-08-25T04:52:13.043Z,25.46
2022-08-25T04:53:11.158Z,25.51
2022-08-25T04:54:11.146Z,25.46
2022-08-25T04:55:11.131Z,26.16
2022-08-25T04:56:11.112Z,26.16
2022-08-25T04:57:11.099Z,25.35
2022-08-25T04:58:14.554Z,25.14
2022-08-25T04:59:11.073Z,26.21
2022-08-25T05:00:11.067Z,25.73
2022-08-25T05:01:11.148Z,25.46
2022-08-25T05:02:11.037Z,25.57
2022-08-25T05:03:11.021Z,25.57
2022-08-25T05:04:14.630Z,25.51
2022-08-25T05:05:12.014Z,25.51
2022-08-25T05:06:15.713Z,25.51
2022-08-25T05:07:10.961Z,25.19
2022-08-25T05:08:10.950Z,25.57
2022-08-25T05:09:10.936Z,25.57
2022-08-25T05:10:10.928Z,25.51
2022-08-25T05:11:10.907Z,25.46
2022-08-25T05:12:10.902Z,26.05
2022-08-25T05:13:10.885Z,25.51
2022-08-25T05:14:10.882Z,26.10
2022-08-25T05:15:10.859Z,25.46
2022-08-25T05:16:11.476Z,25.41
2022-08-25T05:17:10.832Z,25.46
2022-08-25T05:18:10.821Z,25.46
2022-08-25T05:19:10.804Z,25.51
2022-08-25T05:20:10.791Z,25.41
2022-08-25T05:21:10.771Z,25.46
2022-08-25T05:22:10.761Z,25.46
2022-08-25T05:23:10.745Z,25.51
2022-08-25T05:24:10.732Z,25.51
2022-08-25T05:25:10.721Z,25.57
2022-08-25T05:26:10.707Z,25.14
2022-08-25T05:27:10.694Z,25.46
2022-08-25T05:28:10.685Z,25.41
2022-08-25T05:29:10.673Z,25.46
2022-08-25T05:30:10.658Z,25.46
2022-08-25T05:31:10.703Z,25.46
2022-08-25T05:32:10.654Z,25.46
2022-08-25T05:33:10.610Z,25.46
2022-08-25T05:34:10.599Z,25.46
2022-08-25T05:35:10.582Z,25.62
2022-08-25T05:36:10.575Z,25.14
2022-08-25T05:37:12.290Z,25.57
2022-08-25T05:38:15.617Z,25.30
2022-08-25T05:39:10.535Z,25.46
2022-08-25T05:40:10.582Z,26.10
2022-08-25T05:41:10.506Z,26.05
2022-08-25T05:42:10.507Z,25.41
2022-08-25T05:43:10.478Z,25.62
2022-08-25T05:44:10.461Z,25.67
2022-08-25T05:45:10.447Z,25.46
2022-08-25T05:46:11.588Z,25.46
2022-08-25T05:47:10.419Z,25.57
2022-08-25T05:48:10.409Z,25.51
2022-08-25T05:49:10.394Z,25.08
2022-08-25T05:50:10.382Z,25.51
2022-08-25T05:51:10.367Z,25.24
2022-08-25T05:52:10.361Z,25.46
2022-08-25T05:53:10.347Z,25.57
2022-08-25T05:54:10.337Z,25.51
2022-08-25T05:55:10.322Z,25.41
2022-08-25T05:56:10.306Z,25.41
2022-08-25T05:57:10.312Z,25.46
2022-08-25T05:58:10.280Z,25.51
2022-08-25T05:59:10.264Z,25.46
2022-08-25T06:00:10.246Z,25.57
2022-08-25T06:01:10.543Z,25.51
2022-08-25T06:02:10.238Z,25.46
2022-08-25T06:03:10.204Z,25.51
2022-08-25T06:04:10.198Z,25.46
2022-08-25T06:05:10.188Z,25.46
2022-08-25T06:06:10.171Z,25.46
2022-08-25T06:07:10.157Z,25.51
2022-08-25T06:08:10.140Z,25.51
2022-08-25T06:09:10.123Z,25.14
2022-08-25T06:10:10.116Z,25.41
2022-08-25T06:11:10.100Z,25.46
2022-08-25T06:12:10.086Z,25.51
2022-08-25T06:13:10.070Z,25.08
2022-08-25T06:14:10.060Z,25.19
2022-08-25T06:15:10.044Z,25.46
2022-08-25T06:16:10.136Z,25.51
2022-08-25T06:17:10.020Z,25.67
2022-08-25T06:18:10.008Z,25.46
2022-08-25T06:19:10.034Z,25.57
2022-08-25T06:20:09.989Z,25.51
2022-08-25T06:21:09.970Z,25.57
2022-08-25T06:22:09.958Z,25.41
2022-08-25T06:23:09.940Z,25.46
2022-08-25T06:24:14.717Z,25.62
2022-08-25T06:25:09.915Z,25.57
2022-08-25T06:26:09.901Z,25.41
2022-08-25T06:27:09.884Z,25.51
2022-08-25T06:28:09.874Z,25.57
2022-08-25T06:29:09.856Z,25.30
2022-08-25T06:30:09.846Z,25.51
2022-08-25T06:31:09.874Z,25.46
2022-08-25T06:32:09.826Z,25.67
2022-08-25T06:33:09.807Z,25.46
2022-08-25T06:34:09.801Z,25.46
2022-08-25T06:35:09.779Z,25.08
2022-08-25T06:36:09.767Z,25.03
2022-08-25T06:37:09.756Z,25.03
2022-08-25T06:38:09.744Z,25.62
2022-08-25T06:39:10.478Z,25.08
2022-08-25T06:40:09.824Z,25.19
2022-08-25T06:41:09.703Z,25.24
2022-08-25T06:42:09.699Z,25.67
2022-08-25T06:43:09.676Z,25.24
2022-08-25T06:44:09.673Z,25.08
2022-08-25T06:45:09.653Z,25.46
2022-08-25T06:46:09.646Z,25.08
2022-08-25T06:47:09.717Z,25.19
2022-08-25T06:48:09.611Z,25.03
2022-08-25T06:49:09.594Z,24.76
2022-08-25T06:50:09.591Z,25.03
2022-08-25T06:51:09.567Z,24.81
2022-08-25T06:52:09.554Z,25.08
2022-08-25T06:53:09.540Z,25.14
2022-08-25T06:54:09.530Z,24.76
2022-08-25T06:55:09.512Z,25.08
2022-08-25T06:56:09.505Z,25.08
2022-08-25T06:57:09.496Z,25.08
2022-08-25T06:58:11.146Z,24.76
2022-08-25T06:59:09.467Z,24.71
2022-08-25T07:00:09.456Z,25.08
2022-08-25T07:01:13.468Z,25.14
2022-08-25T07:02:10.524Z,24.76
2022-08-25T07:03:09.474Z,25.03
2022-08-25T07:04:12.795Z,24.81
2022-08-25T07:05:13.181Z,24.65
2022-08-25T07:06:09.375Z,25.08
2022-08-25T07:07:09.354Z,25.51
2022-08-25T07:08:09.351Z,24.71
2022-08-25T07:09:09.335Z,24.65
2022-08-25T07:10:09.332Z,24.76
2022-08-25T07:11:15.918Z,24.60
2022-08-25T07:12:10.322Z,25.03
2022-08-25T07:13:09.285Z,24.71
2022-08-25T07:14:09.276Z,24.76
2022-08-25T07:15:19.727Z,24.65
2022-08-25T07:16:10.320Z,24.81
2022-08-25T07:17:11.943Z,24.44
2022-08-25T07:18:09.260Z,24.71
2022-08-25T07:19:09.205Z,24.71
2022-08-25T07:20:09.198Z,24.87
2022-08-25T07:21:09.333Z,24.76
2022-08-25T07:22:09.360Z,24.71
2022-08-25T07:23:09.197Z,24.76
2022-08-25T07:24:09.144Z,24.81
2022-08-25T07:25:09.127Z,24.38
2022-08-25T07:26:15.829Z,24.87
2022-08-25T07:27:10.139Z,24.76
2022-08-25T07:28:09.347Z,24.76
2022-08-25T07:29:09.115Z,24.81
2022-08-25T07:30:09.074Z,24.81
2022-08-25T07:31:10.002Z,24.17
2022-08-25T07:32:09.042Z,24.60
2022-08-25T07:33:09.347Z,24.17
2022-08-25T07:34:09.022Z,24.81
2022-08-25T07:35:09.005Z,24.71
2022-08-25T07:36:09.001Z,24.71
2022-08-25T07:37:08.983Z,24.28
2022-08-25T07:38:09.172Z,24.12
2022-08-25T07:39:08.956Z,24.22
2022-08-25T07:40:08.981Z,24.01
2022-08-25T07:41:08.928Z,24.38
2022-08-25T07:42:11.958Z,24.38
2022-08-25T07:43:08.903Z,24.12
2022-08-25T07:44:08.902Z,24.01
2022-08-25T07:45:08.883Z,24.76
2022-08-25T07:46:08.944Z,24.06
2022-08-25T07:47:08.857Z,24.22
2022-08-25T07:48:08.851Z,24.76
2022-08-25T07:49:16.357Z,24.65
2022-08-25T07:50:09.845Z,24.76
2022-08-25T07:51:08.813Z,24.76
2022-08-25T07:52:09.009Z,24.55
2022-08-25T07:53:09.073Z,24.17
2022-08-25T07:54:08.772Z,24.17
2022-08-25T07:55:11.034Z,24.71
2022-08-25T07:56:08.748Z,24.71
2022-08-25T07:57:08.732Z,24.87
2022-08-25T07:58:08.935Z,24.22
2022-08-25T07:59:08.706Z,24.22
2022-08-25T08:00:08.703Z,24.12
2022-08-25T08:01:08.688Z,24.28
2022-08-25T08:02:08.803Z,24.22
2022-08-25T08:03:12.953Z,24.12
2022-08-25T08:04:09.702Z,24.65
2022-08-25T08:05:09.690Z,23.85
2022-08-25T08:06:08.631Z,24.44
2022-08-25T08:07:12.078Z,24.06
2022-08-25T08:08:08.602Z,24.12
2022-08-25T08:09:08.586Z,24.01
2022-08-25T08:10:41.975Z,24.06
2022-08-25T08:11:09.683Z,24.12
2022-08-25T08:12:08.555Z,24.12
2022-08-25T08:13:08.928Z,23.85
2022-08-25T08:14:08.532Z,24.17
2022-08-25T08:15:10.173Z,23.74
2022-08-25T08:16:08.565Z,24.28
2022-08-25T08:17:08.590Z,24.12
2022-08-25T08:18:08.482Z,23.74
2022-08-25T08:19:08.465Z,24.01
2022-08-25T08:20:08.457Z,24.01
2022-08-25T08:21:08.442Z,23.90
2022-08-25T08:22:08.433Z,23.90
2022-08-25T08:23:08.619Z,24.01
2022-08-25T08:24:24.788Z,24.60
2022-08-25T08:25:10.598Z,24.12
2022-08-25T08:26:08.381Z,24.12
2022-08-25T08:27:08.370Z,24.28
2022-08-25T08:28:08.513Z,24.28
2022-08-25T08:29:08.348Z,24.12
2022-08-25T08:30:08.357Z,24.17
2022-08-25T08:31:10.799Z,24.12
2022-08-25T08:32:08.317Z,24.06
2022-08-25T08:33:11.780Z,24.01
2022-08-25T08:34:08.297Z,23.69
2022-08-25T08:35:08.276Z,23.69
2022-08-25T08:36:08.264Z,23.69
2022-08-25T08:37:08.253Z,23.74
2022-08-25T08:38:14.788Z,24.22
2022-08-25T08:39:09.251Z,23.69
2022-08-25T08:40:08.285Z,23.74
2022-08-25T08:41:08.206Z,23.74
2022-08-25T08:42:11.681Z,23.85
2022-08-25T08:43:13.311Z,23.42
2022-08-25T08:44:09.200Z,23.69
2022-08-25T08:45:09.729Z,23.79
2022-08-25T08:46:08.237Z,23.74
2022-08-25T08:47:09.628Z,23.74
2022-08-25T08:48:08.122Z,23.90
2022-08-25T08:49:08.108Z,23.69
2022-08-25T08:50:08.097Z,23.74
2022-08-25T08:51:10.037Z,23.36
2022-08-25T08:52:08.079Z,23.79
2022-08-25T08:53:08.178Z,23.69
2022-08-25T08:54:15.362Z,24.01
2022-08-25T08:55:09.063Z,23.69
2022-08-25T08:56:08.034Z,23.74
2022-08-25T08:57:08.027Z,23.74
2022-08-25T08:58:08.014Z,23.74
2022-08-25T08:59:07.999Z,23.36
2022-08-25T09:00:07.996Z,23.31
2022-08-25T09:01:07.976Z,23.26
2022-08-25T09:02:13.696Z,23.31
2022-08-25T09:03:07.991Z,23.31
2022-08-25T09:04:07.944Z,23.42
2022-08-25T09:05:07.929Z,23.42
2022-08-25T09:06:07.923Z,23.36
2022-08-25T09:07:07.900Z,23.36
2022-08-25T09:08:08.534Z,23.36
2022-08-25T09:09:07.877Z,23.36
2022-08-25T09:10:07.869Z,23.36
2022-08-25T09:11:10.261Z,23.36
2022-08-25T09:12:07.848Z,23.36
2022-08-25T09:13:12.234Z,22.83
2022-08-25T09:14:07.839Z,23.42
2022-08-25T09:15:12.622Z,23.36
2022-08-25T09:16:07.949Z,22.77
2022-08-25T09:17:07.792Z,23.42
2022-08-25T09:18:08.500Z,23.53
2022-08-25T09:19:07.768Z,23.36
2022-08-25T09:20:18.704Z,23.26
2022-08-25T09:21:08.762Z,23.47
2022-08-25T09:22:35.745Z,23.36
2022-08-25T09:23:08.742Z,22.77
2022-08-25T09:24:11.618Z,23.26
2022-08-25T09:25:08.772Z,23.26
2022-08-25T09:26:07.687Z,23.36
2022-08-25T09:27:07.675Z,23.36
2022-08-25T09:28:07.667Z,22.77
2022-08-25T09:29:07.659Z,22.77
2022-08-25T09:30:10.037Z,22.83
2022-08-25T09:31:07.700Z,22.83
2022-08-25T09:32:07.627Z,22.93
2022-08-25T09:33:07.614Z,22.83
2022-08-25T09:34:07.597Z,22.56
2022-08-25T09:35:07.589Z,22.61
2022-08-25T09:36:08.888Z,22.88
2022-08-25T09:37:07.565Z,22.72
2022-08-25T09:38:07.726Z,23.15
2022-08-25T09:39:07.543Z,22.72
2022-08-25T09:40:07.628Z,22.77
2022-08-25T09:41:07.523Z,22.83
2022-08-25T09:42:07.504Z,22.83
2022-08-25T09:43:07.499Z,22.77
2022-08-25T09:44:07.487Z,22.77
2022-08-25T09:45:07.478Z,22.50
2022-08-25T09:46:07.482Z,22.77
2022-08-25T09:47:08.265Z,22.40
2022-08-25T09:48:07.687Z,22.88
2022-08-25T09:49:07.436Z,22.40
2022-08-25T09:50:07.424Z,22.88
2022-08-25T09:51:07.414Z,22.72
2022-08-25T09:52:07.399Z,22.45
2022-08-25T09:53:12.168Z,22.72
2022-08-25T09:54:10.694Z,22.34
2022-08-25T09:55:07.370Z,22.45
2022-08-25T09:56:07.359Z,22.50
2022-08-25T09:57:08.600Z,22.50
2022-08-25T09:58:09.505Z,22.56
2022-08-25T09:59:07.326Z,22.34
2022-08-25T10:00:08.343Z,22.45
2022-08-25T10:01:07.437Z,26.53
2022-08-25T10:02:07.296Z,50.22
2022-08-25T10:03:08.010Z,50.33
2022-08-25T10:04:19.036Z,50.17
2022-08-25T10:05:08.319Z,39.05
2022-08-25T10:06:07.250Z,35.72
2022-08-25T10:07:08.720Z,33.46
2022-08-25T10:08:07.222Z,32.28
2022-08-25T10:09:07.213Z,30.29
2022-08-25T10:10:07.200Z,30.40
2022-08-25T10:11:08.881Z,29.59
2022-08-25T10:12:07.180Z,29.33
2022-08-25T10:13:07.324Z,29.11
2022-08-25T10:14:07.160Z,28.90
2022-08-25T10:15:07.159Z,29.06
2022-08-25T10:16:19.960Z,28.25
2022-08-25T10:17:08.157Z,28.20
2022-08-25T10:18:07.116Z,28.41
2022-08-25T10:19:07.215Z,27.61
2022-08-25T10:20:07.093Z,28.20
2022-08-25T10:21:07.751Z,27.66
2022-08-25T10:22:07.073Z,27.45
2022-08-25T10:23:07.261Z,27.50
2022-08-25T10:24:07.064Z,27.45
2022-08-25T10:25:07.050Z,27.66
2022-08-25T10:26:07.034Z,28.14
2022-08-25T10:27:07.031Z,27.23
2022-08-25T10:28:07.257Z,26.91
2022-08-25T10:29:07.006Z,26.86
2022-08-25T10:30:06.992Z,26.48
2022-08-25T10:31:09.660Z,26.53
2022-08-25T10:32:11.506Z,27.12
2022-08-25T10:33:07.148Z,26.69
2022-08-25T10:34:06.945Z,26.59
2022-08-25T10:35:06.938Z,26.37
2022-08-25T10:36:06.926Z,26.53
2022-08-25T10:37:09.247Z,26.48
2022-08-25T10:38:06.905Z,26.59
2022-08-25T10:39:34.668Z,26.48
2022-08-25T10:40:07.961Z,26.05
2022-08-25T10:41:06.879Z,26.80
2022-08-25T10:42:06.882Z,26.16
2022-08-25T10:43:07.113Z,26.10
2022-08-25T10:44:06.855Z,25.57
2022-08-25T10:45:06.842Z,26.16
2022-08-25T10:46:06.895Z,26.21
2022-08-25T10:47:06.821Z,25.08
2022-08-25T10:48:06.800Z,25.51
2022-08-25T10:49:06.802Z,25.89
2022-08-25T10:50:06.782Z,26.05
2022-08-25T10:51:06.776Z,25.62
2022-08-25T10:52:06.766Z,25.57
2022-08-25T10:53:06.926Z,25.51
2022-08-25T10:54:06.742Z,25.57
2022-08-25T10:55:06.736Z,25.46
2022-08-25T10:56:07.265Z,25.30
2022-08-25T10:57:08.154Z,25.51
2022-08-25T10:58:06.702Z,25.19
2022-08-25T10:59:06.693Z,24.60
2022-08-25T11:00:06.691Z,25.14
2022-08-25T11:01:06.725Z,25.57
2022-08-25T11:02:06.746Z,25.57
2022-08-25T11:03:06.903Z,25.62
2022-08-25T11:04:06.690Z,25.14
2022-08-25T11:05:06.814Z,25.14
2022-08-25T11:06:06.626Z,25.35
2022-08-25T11:07:06.603Z,25.19
2022-08-25T11:08:06.595Z,25.19
2022-08-25T11:09:06.583Z,25.14
2022-08-25T11:10:06.567Z,24.92
2022-08-25T11:11:06.568Z,25.35
2022-08-25T11:12:06.551Z,25.14
2022-08-25T11:13:06.755Z,25.14
2022-08-25T11:14:06.524Z,25.14
2022-08-25T11:15:06.516Z,25.14
2022-08-25T11:16:17.227Z,25.30
2022-08-25T11:17:07.653Z,25.14
2022-08-25T11:18:06.483Z,25.24
2022-08-25T11:19:07.504Z,25.14
2022-08-25T11:20:06.461Z,25.24
2022-08-25T11:21:06.457Z,24.87
2022-08-25T11:22:06.439Z,25.03
2022-08-25T11:23:06.750Z,25.03
2022-08-25T11:24:06.411Z,25.19
2022-08-25T11:25:06.408Z,25.19
2022-08-25T11:26:06.393Z,25.14
2022-08-25T11:27:06.383Z,24.81
2022-08-25T11:28:06.555Z,24.76
2022-08-25T11:29:11.364Z,25.08
2022-08-25T11:30:07.007Z,24.76
2022-08-25T11:31:06.416Z,24.76
2022-08-25T11:32:06.331Z,24.44
2022-08-25T11:33:06.326Z,24.28
2022-08-25T11:34:06.310Z,24.98
2022-08-25T11:35:06.304Z,24.81
2022-08-25T11:36:06.961Z,24.71
2022-08-25T11:37:06.279Z,25.03
2022-08-25T11:38:06.493Z,24.81
2022-08-25T11:39:06.256Z,24.71
2022-08-25T11:40:06.269Z,24.17
2022-08-25T11:41:11.054Z,24.22
2022-08-25T11:42:06.226Z,24.33
2022-08-25T11:43:08.282Z,24.81
2022-08-25T11:44:06.211Z,24.92
2022-08-25T11:45:06.209Z,25.08
2022-08-25T11:46:06.221Z,24.55
2022-08-25T11:47:06.238Z,24.81
2022-08-25T11:48:06.721Z,24.28
2022-08-25T11:49:06.176Z,24.87
2022-08-25T11:50:06.146Z,24.81
2022-08-25T11:51:06.135Z,24.71
2022-08-25T11:52:06.117Z,24.76
2022-08-25T11:53:06.116Z,24.71
2022-08-25T11:54:06.095Z,24.71
2022-08-25T11:55:06.089Z,23.74
2022-08-25T11:56:06.096Z,24.44
2022-08-25T11:57:06.072Z,35.77
2022-08-25T11:58:06.302Z,34.48
2022-08-25T11:59:06.052Z,50.33
2022-08-25T12:00:06.033Z,50.06
2022-08-25T12:01:06.025Z,50.27
2022-08-25T12:02:06.010Z,50.54
2022-08-25T12:03:05.999Z,50.11
2022-08-25T12:04:06.037Z,50.27
2022-08-25T12:05:06.092Z,47.64
2022-08-25T12:06:05.963Z,38.78
2022-08-25T12:07:05.959Z,35.61
2022-08-25T12:08:06.291Z,33.30
2022-08-25T12:09:05.943Z,32.39
2022-08-25T12:10:05.923Z,31.31
2022-08-25T12:11:10.584Z,30.29
2022-08-25T12:12:05.902Z,30.35
2022-08-25T12:13:10.292Z,29.70
2022-08-25T12:14:05.880Z,29.17
2022-08-25T12:15:05.873Z,29.27
2022-08-25T12:16:05.853Z,29.06
2022-08-25T12:17:05.844Z,28.84
2022-08-25T12:18:08.575Z,28.79
2022-08-25T12:19:05.823Z,28.31
2022-08-25T12:20:05.814Z,28.20
2022-08-25T12:21:05.796Z,28.25
2022-08-25T12:22:05.791Z,28.20
2022-08-25T12:23:05.779Z,28.20
2022-08-25T12:24:05.766Z,27.88
2022-08-25T12:25:05.758Z,27.93
2022-08-25T12:26:05.742Z,27.88
2022-08-25T12:27:06.220Z,27.61
2022-08-25T12:28:06.886Z,27.50
2022-08-25T12:29:07.315Z,27.45
2022-08-25T12:30:05.704Z,27.45
2022-08-25T12:31:05.749Z,27.45
2022-08-25T12:32:05.681Z,27.45
2022-08-25T12:33:05.670Z,26.80
2022-08-25T12:34:05.655Z,27.02
2022-08-25T12:35:05.647Z,26.75
2022-08-25T12:36:05.634Z,27.02
2022-08-25T12:37:06.112Z,26.96
2022-08-25T12:38:05.774Z,26.96
2022-08-25T12:39:05.604Z,26.37
2022-08-25T12:40:05.670Z,26.53
2022-08-25T12:41:05.581Z,26.69
2022-08-25T12:42:05.569Z,26.53
2022-08-25T12:43:05.685Z,26.64
2022-08-25T12:44:05.535Z,26.05
2022-08-25T12:45:05.528Z,26.10
2022-08-25T12:46:05.548Z,26.48
2022-08-25T12:47:05.509Z,26.16
2022-08-25T12:48:05.498Z,26.10
2022-08-25T12:49:05.485Z,26.10
2022-08-25T12:50:05.483Z,26.05
2022-08-25T12:51:05.464Z,26.16
2022-08-25T12:52:05.451Z,26.16